createdAt,value
2022-11-19T00:01:06.771Z,8.18
2022-11-19T00:03:34.229Z,8.30
2022-11-19T00:06:05.181Z,8.18
2022-11-19T00:08:31.642Z,7.75
2022-11-19T00:11:06.756Z,7.38
2022-11-19T00:13:36.049Z,8.00
2022-11-19T00:16:05.712Z,8.77
2022-11-19T00:18:32.228Z,7.53
2022-11-19T00:21:08.919Z,8.32
2022-11-19T00:23:35.533Z,8.18
2022-11-19T00:26:09.511Z,7.78
2022-11-19T00:28:36.358Z,8.57
2022-11-19T00:31:04.048Z,8.02
2022-11-19T00:33:30.730Z,7.78
2022-11-19T00:35:57.695Z,8.48
2022-11-19T00:38:24.266Z,7.20
2022-11-19T00:40:50.710Z,7.30
2022-11-19T00:43:35.802Z,7.60
2022-11-19T00:46:02.247Z,7.22
2022-11-19T00:48:28.679Z,7.32
2022-11-19T00:50:55.132Z,6.97
2022-11-19T00:53:21.727Z,7.40
2022-11-19T00:55:48.163Z,7.90
2022-11-19T00:58:14.601Z,7.45
2022-11-19T01:00:41.028Z,6.97
2022-11-19T01:03:07.445Z,7.30
2022-11-19T01:05:33.856Z,7.13
2022-11-19T01:08:00.392Z,7.97
2022-11-19T01:10:26.857Z,8.13
2022-11-19T01:13:12.033Z,7.65
2022-11-19T01:15:38.565Z,8.20
2022-11-19T01:18:05.031Z,7.68
2022-11-19T01:20:31.609Z,8.00
2022-11-19T01:22:58.154Z,7.53
2022-11-19T01:25:24.597Z,8.35
2022-11-19T01:27:51.850Z,8.45
2022-11-19T01:30:18.347Z,8.20
2022-11-19T01:32:44.823Z,8.63
2022-11-19T01:35:11.298Z,8.30
2022-11-19T01:37:37.773Z,9.15
2022-11-19T01:40:04.440Z,8.77
2022-11-19T01:42:50.204Z,8.73
2022-11-19T01:45:28.994Z,9.27
2022-11-19T01:47:56.976Z,9.02
2022-11-19T01:50:24.021Z,8.80
2022-11-19T01:52:50.816Z,9.45
2022-11-19T01:55:18.816Z,9.25
2022-11-19T01:57:45.671Z,8.05
2022-11-19T02:00:12.409Z,8.68
2022-11-19T02:02:38.883Z,8.77
2022-11-19T02:05:05.504Z,9.25
2022-11-19T02:07:33.819Z,8.70
2022-11-19T02:10:01.555Z,9.57
2022-11-19T02:12:39.969Z,9.10
2022-11-19T02:15:12.021Z,9.75
2022-11-19T02:17:56.692Z,9.88
2022-11-19T02:20:32.006Z,9.10
2022-11-19T02:23:01.268Z,10.48
2022-11-19T02:25:39.813Z,9.93
2022-11-19T02:28:09.156Z,9.27
2022-11-19T02:30:37.161Z,8.50
2022-11-19T02:33:13.429Z,9.48
2022-11-19T02:35:44.217Z,10.73
2022-11-19T02:38:35.070Z,10.20
2022-11-19T02:41:35.253Z,11.43
2022-11-19T02:44:34.765Z,11.07
2022-11-19T02:47:03.544Z,10.25
2022-11-19T02:49:31.666Z,10.63
2022-11-19T02:51:59.158Z,9.88
2022-11-19T02:54:26.576Z,10.18
2022-11-19T02:56:54.820Z,10.23
2022-11-19T02:59:49.836Z,11.38
2022-11-19T03:02:36.522Z,10.10
2022-11-19T03:05:05.560Z,10.77
2022-11-19T03:07:32.010Z,10.45
2022-11-19T03:10:00.678Z,10.23
2022-11-19T03:12:27.108Z,10.52
2022-11-19T03:15:41.570Z,10.68
2022-11-19T03:18:16.920Z,10.73
2022-11-19T03:21:04.096Z,10.70
2022-11-19T03:23:34.190Z,10.10
2022-11-19T03:26:06.412Z,9.75
2022-11-19T03:28:34.583Z,10.20
2022-11-19T03:31:02.241Z,9.60
2022-11-19T03:33:40.223Z,10.18
2022-11-19T03:36:18.112Z,10.48
2022-11-19T03:38:46.481Z,10.13
2022-11-19T03:41:14.448Z,10.15
2022-11-19T03:43:43.063Z,10.00
2022-11-19T03:46:13.314Z,8.95
2022-11-19T03:48:40.962Z,9.20
2022-11-19T03:51:10.628Z,9.32
2022-11-19T03:53:37.157Z,9.07
2022-11-19T03:56:05.116Z,9.95
2022-11-19T03:58:37.006Z,10.85
2022-11-19T04:03:29.751Z,9.60
2022-11-19T04:05:56.178Z,9.95
2022-11-19T04:08:22.643Z,10.02
2022-11-19T04:10:49.160Z,10.65
2022-11-19T04:13:15.627Z,10.13
2022-11-19T04:15:42.199Z,10.43
2022-11-19T04:18:08.617Z,9.40
2022-11-19T04:20:35.102Z,8.30
2022-11-19T04:23:01.660Z,11.20
2022-11-19T04:25:28.103Z,11.55
2022-11-19T04:27:54.512Z,11.52
2022-11-19T04:30:20.962Z,11.18
2022-11-19T04:32:47.413Z,12.27
2022-11-19T04:35:14.266Z,12.07
2022-11-19T04:37:40.725Z,12.75
2022-11-19T04:40:07.514Z,12.02
2022-11-19T04:42:33.891Z,12.20
2022-11-19T04:45:00.399Z,11.60
2022-11-19T04:47:26.797Z,12.20
2022-11-19T04:49:53.277Z,12.27
2022-11-19T04:52:19.676Z,10.38
2022-11-19T04:54:46.163Z,11.30
2022-11-19T04:57:14.690Z,13.35
2022-11-19T04:59:41.083Z,13.65
2022-11-19T05:02:07.577Z,12.63
2022-11-19T05:04:33.994Z,12.80
2022-11-19T05:07:00.454Z,13.07
2022-11-19T05:09:26.955Z,12.25
2022-11-19T05:11:53.428Z,12.00
2022-11-19T05:14:19.850Z,11.32
2022-11-19T05:16:46.319Z,10.13
2022-11-19T05:19:12.759Z,9.35
2022-11-19T05:21:39.264Z,12.30
2022-11-19T05:24:05.807Z,10.90
2022-11-19T05:26:32.212Z,12.70
2022-11-19T05:28:58.616Z,12.10
2022-11-19T05:31:25.061Z,12.73
2022-11-19T05:33:51.532Z,12.15
2022-11-19T05:36:17.998Z,11.63
2022-11-19T05:38:44.426Z,12.40
2022-11-19T05:41:10.934Z,11.07
2022-11-19T05:43:37.458Z,12.13
2022-11-19T05:46:03.879Z,13.40
2022-11-19T05:48:30.350Z,12.02
2022-11-19T05:50:56.761Z,12.45
2022-11-19T05:53:23.164Z,12.98
2022-11-19T05:55:49.568Z,13.52
2022-11-19T05:58:16.009Z,11.77
2022-11-19T06:00:42.508Z,12.63
2022-11-19T06:03:09.234Z,11.48
2022-11-19T06:05:40.080Z,11.73
2022-11-19T06:08:07.059Z,10.98
2022-11-19T06:10:33.470Z,10.98
2022-11-19T06:12:59.888Z,10.63
2022-11-19T06:15:26.323Z,10.02
2022-11-19T06:17:52.821Z,9.05
2022-11-19T06:20:19.446Z,11.50
2022-11-19T06:22:45.853Z,12.35
2022-11-19T06:25:12.330Z,13.13
2022-11-19T06:27:38.835Z,16.90
2022-11-19T06:30:06.009Z,20.65
2022-11-19T06:32:32.603Z,13.85
2022-11-19T06:34:59.014Z,12.13
2022-11-19T06:37:25.452Z,14.43
2022-11-19T06:39:51.886Z,13.77
2022-11-19T06:42:36.278Z,14.70
2022-11-19T06:45:07.274Z,19.40
2022-11-19T06:47:33.942Z,18.43
2022-11-19T06:50:00.443Z,15.73
2022-11-19T06:52:27.087Z,15.40
2022-11-19T06:54:53.626Z,16.80
2022-11-19T06:57:20.171Z,14.52
2022-11-19T06:59:46.597Z,12.73
2022-11-19T07:02:14.496Z,12.30
2022-11-19T07:04:42.310Z,12.20
